createdAt,value
2023-06-27T00:01:52.560Z,22.39
2023-06-27T00:04:20.311Z,22.38
2023-06-27T00:06:47.819Z,22.38
2023-06-27T00:09:16.238Z,22.36
2023-06-27T00:11:43.423Z,22.36
2023-06-27T00:14:10.852Z,22.37
2023-06-27T00:16:39.240Z,22.37
2023-06-27T00:19:06.523Z,22.38
2023-06-27T00:21:34.722Z,22.36
2023-06-27T00:24:02.515Z,22.36
2023-06-27T00:26:29.796Z,22.33
2023-06-27T00:28:57.174Z,22.32
2023-06-27T00:31:24.547Z,22.31
2023-06-27T00:33:51.769Z,22.28
2023-06-27T00:36:18.767Z,22.27
2023-06-27T00:38:45.909Z,22.25
2023-06-27T00:41:12.857Z,22.22
2023-06-27T00:43:39.722Z,22.20
2023-06-27T00:46:08.515Z,22.19
2023-06-27T00:48:35.699Z,22.17
2023-06-27T00:51:04.628Z,22.14
2023-06-27T00:53:31.779Z,22.12
2023-06-27T00:55:59.075Z,22.10
2023-06-27T00:58:26.634Z,22.08
2023-06-27T01:00:53.538Z,22.06
2023-06-27T01:03:22.114Z,22.03
2023-06-27T01:05:49.398Z,22.01
2023-06-27T01:08:35.711Z,21.98
2023-06-27T01:11:29.636Z,21.93
2023-06-27T01:13:58.159Z,21.91
2023-06-27T01:16:30.087Z,21.90
2023-06-27T01:18:58.506Z,21.86
2023-06-27T01:21:29.849Z,21.84
2023-06-27T01:24:03.706Z,21.82
2023-06-27T01:26:31.357Z,21.78
2023-06-27T01:28:58.240Z,21.76
2023-06-27T01:31:40.702Z,21.74
2023-06-27T01:34:24.119Z,21.72
2023-06-27T01:37:22.113Z,21.68
2023-06-27T01:39:58.196Z,21.65
2023-06-27T01:42:30.088Z,21.62
2023-06-27T01:44:58.334Z,21.58
2023-06-27T01:47:26.174Z,21.56
2023-06-27T01:49:53.061Z,21.55
2023-06-27T01:52:20.376Z,21.53
2023-06-27T01:54:47.315Z,21.52
2023-06-27T01:57:14.162Z,21.50
2023-06-27T01:59:40.971Z,21.48
2023-06-27T02:02:08.002Z,21.47
2023-06-27T02:04:35.357Z,21.44
2023-06-27T02:07:02.223Z,21.42
2023-06-27T02:09:29.056Z,21.41
2023-06-27T02:11:55.896Z,21.37
2023-06-27T02:14:22.677Z,21.36
2023-06-27T02:16:49.466Z,21.34
2023-06-27T02:19:16.280Z,21.32
2023-06-27T02:21:44.331Z,21.30
2023-06-27T02:24:11.124Z,21.29
2023-06-27T02:26:37.979Z,21.27
2023-06-27T02:29:04.799Z,21.26
2023-06-27T02:31:31.645Z,21.24
2023-06-27T02:33:58.503Z,21.23
2023-06-27T02:36:28.371Z,21.22
2023-06-27T02:38:56.113Z,21.20
2023-06-27T02:41:25.954Z,21.18
2023-06-27T02:43:53.041Z,21.14
2023-06-27T02:46:20.130Z,21.12
2023-06-27T02:48:47.066Z,21.10
2023-06-27T02:51:14.025Z,21.08
2023-06-27T02:53:40.823Z,21.06
2023-06-27T02:56:08.998Z,21.05
2023-06-27T02:58:36.058Z,21.04
2023-06-27T03:01:07.429Z,21.00
2023-06-27T03:03:35.315Z,21.00
2023-06-27T03:06:09.978Z,20.99
2023-06-27T03:08:40.346Z,20.96
2023-06-27T03:11:07.150Z,20.94
2023-06-27T03:13:34.011Z,20.94
2023-06-27T03:16:02.015Z,20.92
2023-06-27T03:18:29.072Z,20.90
2023-06-27T03:20:55.942Z,20.89
2023-06-27T03:23:22.776Z,20.87
2023-06-27T03:25:49.777Z,20.88
2023-06-27T03:28:16.576Z,20.87
2023-06-27T03:30:44.746Z,20.85
2023-06-27T03:33:12.206Z,20.85
2023-06-27T03:35:39.970Z,20.84
2023-06-27T03:38:07.066Z,20.85
2023-06-27T03:40:34.031Z,20.85
2023-06-27T03:43:01.769Z,20.84
2023-06-27T03:45:29.404Z,20.83
2023-06-27T03:47:56.358Z,20.83
2023-06-27T03:50:23.570Z,20.82
2023-06-27T03:52:50.420Z,20.84
2023-06-27T03:55:17.341Z,20.82
2023-06-27T03:57:44.179Z,20.82
2023-06-27T04:00:12.097Z,20.82
2023-06-27T04:02:39.078Z,20.81
2023-06-27T04:05:06.689Z,20.81
2023-06-27T04:07:33.738Z,20.82
2023-06-27T04:10:00.686Z,20.85
2023-06-27T04:12:27.558Z,20.85
2023-06-27T04:14:54.420Z,20.86
2023-06-27T04:17:21.712Z,20.87
2023-06-27T04:19:48.597Z,20.87
2023-06-27T04:22:15.609Z,20.87
2023-06-27T04:24:42.412Z,20.89
2023-06-27T04:27:09.910Z,20.88
2023-06-27T04:29:37.872Z,20.88
2023-06-27T04:32:05.351Z,20.88
2023-06-27T04:34:32.237Z,20.89
2023-06-27T04:36:59.062Z,20.87
2023-06-27T04:39:25.873Z,20.87
2023-06-27T04:41:52.677Z,20.89
2023-06-27T04:44:22.032Z,20.90
2023-06-27T04:46:48.834Z,20.91
2023-06-27T04:49:15.837Z,20.92
2023-06-27T04:51:42.692Z,20.96
2023-06-27T04:54:09.518Z,20.98
2023-06-27T04:56:36.370Z,21.01
2023-06-27T04:59:03.233Z,21.04
2023-06-27T05:01:30.169Z,21.05
2023-06-27T05:04:05.257Z,21.08
2023-06-27T05:06:34.118Z,21.11
2023-06-27T05:09:02.450Z,21.13
2023-06-27T05:11:29.535Z,21.17
2023-06-27T05:13:56.396Z,21.18
2023-06-27T05:16:23.832Z,21.22
2023-06-27T05:18:50.698Z,21.26
2023-06-27T05:21:17.548Z,21.29
2023-06-27T05:23:44.613Z,21.32
2023-06-27T05:26:11.436Z,21.33
2023-06-27T05:28:38.384Z,21.37
2023-06-27T05:31:05.327Z,21.38
2023-06-27T05:33:32.255Z,21.40
2023-06-27T05:35:59.107Z,21.42
2023-06-27T05:38:25.968Z,21.43
2023-06-27T05:40:52.768Z,21.48
2023-06-27T05:43:21.786Z,21.51
2023-06-27T05:45:48.647Z,21.56
2023-06-27T05:48:15.519Z,21.59
2023-06-27T05:50:42.344Z,21.61
2023-06-27T05:53:09.204Z,21.64
2023-06-27T05:55:35.994Z,21.66
2023-06-27T05:58:02.806Z,21.69
2023-06-27T06:00:30.864Z,21.71
2023-06-27T06:02:57.857Z,21.75
2023-06-27T06:05:24.747Z,21.77
2023-06-27T06:07:52.046Z,21.80
2023-06-27T06:10:19.800Z,21.81
2023-06-27T06:12:46.630Z,21.83
2023-06-27T06:15:13.465Z,21.88
2023-06-27T06:17:40.812Z,21.92
2023-06-27T06:20:12.003Z,21.98
2023-06-27T06:22:39.365Z,22.01
2023-06-27T06:25:06.761Z,22.03
2023-06-27T06:27:33.728Z,22.05
2023-06-27T06:30:00.559Z,22.07
2023-06-27T06:32:27.490Z,22.11
2023-06-27T06:34:54.359Z,22.15
2023-06-27T06:37:22.994Z,22.17
2023-06-27T06:39:49.818Z,22.18
2023-06-27T06:42:16.602Z,22.22
2023-06-27T06:44:43.478Z,22.24
2023-06-27T06:47:10.418Z,22.27
2023-06-27T06:49:37.302Z,22.28
2023-06-27T06:52:04.384Z,22.28
2023-06-27T06:54:31.225Z,22.31
2023-06-27T06:56:58.061Z,22.32
2023-06-27T06:59:24.856Z,22.37
2023-06-27T07:01:52.252Z,22.43
2023-06-27T07:04:19.149Z,22.46
2023-06-27T07:06:46.018Z,22.50
2023-06-27T07:09:12.821Z,22.52
2023-06-27T07:11:39.692Z,22.56
2023-06-27T07:14:06.499Z,22.59
2023-06-27T07:16:33.347Z,22.63
2023-06-27T07:19:00.164Z,22.65
2023-06-27T07:21:27.114Z,22.67
2023-06-27T07:23:53.983Z,22.70
2023-06-27T07:26:21.760Z,22.75
2023-06-27T07:28:48.674Z,22.84
2023-06-27T07:31:15.614Z,23.02
2023-06-27T07:33:42.413Z,23.09
2023-06-27T07:36:09.334Z,23.15
2023-06-27T07:38:36.136Z,23.19
2023-06-27T07:41:03.663Z,23.20
2023-06-27T07:43:30.535Z,23.24
2023-06-27T07:45:57.437Z,23.24
2023-06-27T07:48:24.285Z,23.29
2023-06-27T07:50:51.091Z,23.34
2023-06-27T07:53:17.894Z,23.41
2023-06-27T07:55:44.710Z,23.47
2023-06-27T07:58:11.490Z,23.56
2023-06-27T08:00:40.174Z,23.60
2023-06-27T08:03:07.291Z,23.62
2023-06-27T08:05:36.310Z,23.65
2023-06-27T08:08:03.485Z,23.64
2023-06-27T08:10:30.648Z,23.66
2023-06-27T08:12:57.558Z,23.66
2023-06-27T08:15:24.415Z,23.68
2023-06-27T08:17:51.515Z,23.69
2023-06-27T08:20:19.108Z,23.68
2023-06-27T08:22:46.356Z,23.71
2023-06-27T08:25:13.250Z,23.75
2023-06-27T08:27:40.090Z,23.79
2023-06-27T08:30:08.382Z,23.84
2023-06-27T08:32:35.270Z,23.85
2023-06-27T08:35:05.276Z,23.84
2023-06-27T08:37:32.369Z,23.80
2023-06-27T08:39:59.221Z,23.81
2023-06-27T08:42:26.372Z,23.84
2023-06-27T08:44:53.752Z,23.86
2023-06-27T08:47:26.739Z,23.86
2023-06-27T08:50:03.117Z,23.86
2023-06-27T08:52:35.085Z,23.90
2023-06-27T08:55:05.881Z,23.96
2023-06-27T08:57:34.422Z,24.01
2023-06-27T09:00:13.135Z,24.06
2023-06-27T09:02:42.388Z,24.08
2023-06-27T09:05:10.069Z,24.09
2023-06-27T09:07:37.531Z,24.09
2023-06-27T09:10:04.789Z,24.14
2023-06-27T09:12:33.899Z,24.18
2023-06-27T09:15:00.730Z,24.24
2023-06-27T09:17:27.602Z,24.27
2023-06-27T09:19:54.484Z,24.35
2023-06-27T09:22:24.397Z,24.48
2023-06-27T09:24:51.280Z,24.54
2023-06-27T09:27:33.031Z,24.60
2023-06-27T09:30:04.435Z,24.63
2023-06-27T09:32:31.541Z,24.68
2023-06-27T09:35:03.738Z,24.75
2023-06-27T09:40:21.668Z,24.90
2023-06-27T09:42:56.732Z,24.92
2023-06-27T09:45:25.183Z,24.93
2023-06-27T09:47:52.452Z,24.93
2023-06-27T09:50:28.690Z,25.01
2023-06-27T09:53:00.611Z,25.03
2023-06-27T09:55:28.427Z,25.02
2023-06-27T09:57:55.647Z,25.03
2023-06-27T10:00:23.810Z,25.10
2023-06-27T10:02:52.068Z,25.18
2023-06-27T10:05:22.020Z,25.26
2023-06-27T10:07:51.338Z,25.28
2023-06-27T10:10:25.166Z,25.27
2023-06-27T10:12:53.540Z,25.26
2023-06-27T10:15:20.998Z,25.27
2023-06-27T10:17:48.488Z,25.28
2023-06-27T10:20:15.579Z,25.29
2023-06-27T10:22:45.691Z,25.35
2023-06-27T10:25:13.513Z,25.40
2023-06-27T10:27:43.601Z,25.45
2023-06-27T10:30:27.105Z,25.53
2023-06-27T10:33:21.951Z,25.56
2023-06-27T10:35:55.232Z,25.59
2023-06-27T10:38:22.768Z,25.65
2023-06-27T10:41:03.417Z,25.74
2023-06-27T10:43:37.562Z,25.84
2023-06-27T10:46:27.654Z,25.92
2023-06-27T10:49:07.869Z,26.07
2023-06-27T10:51:43.058Z,26.19
2023-06-27T10:54:10.012Z,26.29
2023-06-27T10:56:42.101Z,26.38
2023-06-27T10:59:27.852Z,26.46
2023-06-27T11:02:08.228Z,26.56
2023-06-27T11:04:44.419Z,26.63
2023-06-27T11:07:18.867Z,26.67
2023-06-27T11:09:57.465Z,26.81
2023-06-27T11:12:24.682Z,26.84
2023-06-27T11:14:55.217Z,26.89
2023-06-27T11:17:26.828Z,26.93
2023-06-27T11:19:57.621Z,26.92
2023-06-27T11:22:25.262Z,26.84
2023-06-27T11:24:52.088Z,26.72
2023-06-27T11:27:20.339Z,26.58
2023-06-27T11:29:47.159Z,26.43
2023-06-27T11:32:14.143Z,26.31
2023-06-27T11:34:44.087Z,26.20
2023-06-27T11:37:12.771Z,26.09
2023-06-27T11:39:39.806Z,26.02
2023-06-27T11:42:07.089Z,25.95
2023-06-27T11:44:35.993Z,25.88
2023-06-27T11:47:06.482Z,25.78
2023-06-27T11:49:34.294Z,25.70
2023-06-27T11:52:01.505Z,25.61
2023-06-27T11:54:28.361Z,25.57
2023-06-27T11:57:01.954Z,25.51
2023-06-27T11:59:33.282Z,25.42
2023-06-27T12:02:00.248Z,25.36
2023-06-27T12:04:27.248Z,25.38
2023-06-27T12:06:54.141Z,25.41
2023-06-27T12:09:28.172Z,25.44
2023-06-27T12:11:59.400Z,25.50
2023-06-27T12:14:27.956Z,25.63
2023-06-27T12:16:54.853Z,25.75
2023-06-27T12:19:23.905Z,25.89
2023-06-27T12:21:53.819Z,26.06
2023-06-27T12:24:21.447Z,26.21
2023-06-27T12:26:48.777Z,26.25
2023-06-27T12:29:17.622Z,26.26
2023-06-27T12:31:47.038Z,26.31
2023-06-27T12:34:14.369Z,26.38
2023-06-27T12:36:41.203Z,26.51
2023-06-27T12:39:08.162Z,26.65
2023-06-27T12:41:35.157Z,26.77
2023-06-27T12:44:02.097Z,26.80
2023-06-27T12:46:29.021Z,26.83
2023-06-27T12:48:55.834Z,26.90
2023-06-27T12:51:23.376Z,27.03
2023-06-27T12:53:50.257Z,27.13
2023-06-27T12:56:17.615Z,27.22
2023-06-27T12:58:47.443Z,27.27
2023-06-27T13:01:14.928Z,27.30
2023-06-27T13:03:41.861Z,27.34
2023-06-27T13:06:08.947Z,27.34
2023-06-27T13:08:35.766Z,27.30
2023-06-27T13:11:02.779Z,27.25
2023-06-27T13:13:34.667Z,27.16
2023-06-27T13:16:13.781Z,27.07
2023-06-27T13:18:41.749Z,27.02
2023-06-27T13:21:08.596Z,27.00
2023-06-27T13:23:35.907Z,26.94
2023-06-27T13:26:02.820Z,26.88
2023-06-27T13:28:29.774Z,26.85
2023-06-27T13:30:56.613Z,26.81
2023-06-27T13:33:24.957Z,26.74
2023-06-27T13:35:51.804Z,26.69
2023-06-27T13:38:18.974Z,26.73
2023-06-27T13:40:45.879Z,26.84
2023-06-27T13:43:12.707Z,26.95
2023-06-27T13:45:39.777Z,27.05
2023-06-27T13:48:06.705Z,27.18
2023-06-27T13:50:33.651Z,27.31
2023-06-27T13:53:00.641Z,27.46
2023-06-27T13:55:28.594Z,27.56
2023-06-27T13:57:55.492Z,27.57
2023-06-27T14:00:22.335Z,27.62
2023-06-27T14:02:49.764Z,27.62
2023-06-27T14:05:16.891Z,27.57
2023-06-27T14:07:43.775Z,27.53
2023-06-27T14:10:10.611Z,27.43
2023-06-27T14:12:38.726Z,27.31
2023-06-27T14:15:06.259Z,27.17
2023-06-27T14:17:33.593Z,27.05
2023-06-27T14:20:00.613Z,26.91
2023-06-27T14:22:27.784Z,26.77
2023-06-27T14:24:54.626Z,26.65
2023-06-27T14:27:21.710Z,26.53
2023-06-27T14:29:48.597Z,26.40
2023-06-27T14:32:15.453Z,26.26
2023-06-27T14:34:42.305Z,26.08
2023-06-27T14:37:10.006Z,25.84
2023-06-27T14:39:36.817Z,25.64
2023-06-27T14:42:04.305Z,25.54
2023-06-27T14:44:34.484Z,25.50
2023-06-27T14:47:01.613Z,25.48
2023-06-27T14:49:28.423Z,25.49
2023-06-27T14:51:55.267Z,25.55
2023-06-27T14:54:22.194Z,25.62
2023-06-27T14:56:50.067Z,25.75
2023-06-27T14:59:17.833Z,25.85
2023-06-27T15:01:44.781Z,25.95
2023-06-27T15:04:11.705Z,26.03
2023-06-27T15:06:38.633Z,26.09
2023-06-27T15:09:05.569Z,26.15
2023-06-27T15:11:32.449Z,26.23
2023-06-27T15:13:59.248Z,26.31
2023-06-27T15:16:26.107Z,26.37
2023-06-27T15:18:52.952Z,26.41
2023-06-27T15:21:19.768Z,26.47
2023-06-27T15:23:46.649Z,26.52
2023-06-27T15:26:13.470Z,26.56
2023-06-27T15:28:40.269Z,26.60
2023-06-27T15:31:09.294Z,26.63
2023-06-27T15:33:36.212Z,26.70
2023-06-27T15:36:03.524Z,26.76
2023-06-27T15:38:30.455Z,26.81
2023-06-27T15:40:57.347Z,26.86
2023-06-27T15:43:24.188Z,26.90
2023-06-27T15:45:51.042Z,26.86
2023-06-27T15:48:19.030Z,26.80
2023-06-27T15:50:45.830Z,26.77
2023-06-27T15:53:12.695Z,26.74
2023-06-27T15:55:39.501Z,26.75
2023-06-27T15:58:06.349Z,26.77
2023-06-27T16:00:33.225Z,26.78
2023-06-27T16:03:00.162Z,26.77
2023-06-27T16:05:27.174Z,26.77
2023-06-27T16:07:54.248Z,26.77
2023-06-27T16:10:23.829Z,26.78
2023-06-27T16:12:50.786Z,26.81
2023-06-27T16:15:17.673Z,26.83
2023-06-27T16:17:44.772Z,26.84
2023-06-27T16:20:11.988Z,26.84
2023-06-27T16:22:38.843Z,26.83
2023-06-27T16:25:06.148Z,26.83
2023-06-27T16:27:32.999Z,26.83
2023-06-27T16:29:59.823Z,26.83
2023-06-27T16:32:26.693Z,26.88
2023-06-27T16:34:53.564Z,26.93
2023-06-27T16:37:20.470Z,27.00
2023-06-27T16:39:47.332Z,27.03
2023-06-27T16:42:14.149Z,27.05
2023-06-27T16:44:40.981Z,27.06
2023-06-27T16:47:07.829Z,27.03
2023-06-27T16:49:34.651Z,26.96
2023-06-27T16:52:01.527Z,26.90
2023-06-27T16:54:28.355Z,26.85
2023-06-27T16:56:55.208Z,26.79
2023-06-27T16:59:22.080Z,26.77
2023-06-27T17:01:52.151Z,26.75
2023-06-27T17:04:21.700Z,26.73
2023-06-27T17:06:48.555Z,26.71
2023-06-27T17:09:15.452Z,26.70
2023-06-27T17:11:42.288Z,26.69
2023-06-27T17:14:09.127Z,26.67
2023-06-27T17:16:35.970Z,26.64
2023-06-27T17:19:02.838Z,26.63
2023-06-27T17:21:30.555Z,26.59
2023-06-27T17:23:57.432Z,26.56
2023-06-27T17:26:24.239Z,26.52
2023-06-27T17:28:51.449Z,26.47
2023-06-27T17:31:18.291Z,26.44
2023-06-27T17:33:45.103Z,26.44
2023-06-27T17:36:12.069Z,26.44
2023-06-27T17:38:38.879Z,26.44
2023-06-27T17:41:05.669Z,26.48
2023-06-27T17:43:32.522Z,26.50
2023-06-27T17:46:00.111Z,26.51
2023-06-27T17:48:26.987Z,26.53
2023-06-27T17:50:53.888Z,26.53
2023-06-27T17:53:21.058Z,26.53
2023-06-27T17:55:47.877Z,26.51
2023-06-27T17:58:14.749Z,26.45
2023-06-27T18:00:42.647Z,26.40
2023-06-27T18:03:10.054Z,26.34
2023-06-27T18:05:36.975Z,26.28
2023-06-27T18:08:03.982Z,26.24
2023-06-27T18:10:30.835Z,26.20
2023-06-27T18:12:57.740Z,26.14
2023-06-27T18:15:26.008Z,26.08
2023-06-27T18:17:52.939Z,26.03
2023-06-27T18:20:20.250Z,25.99
2023-06-27T18:22:47.048Z,25.93
2023-06-27T18:25:13.879Z,25.89
2023-06-27T18:27:43.449Z,25.85
2023-06-27T18:30:10.806Z,25.81
2023-06-27T18:32:37.720Z,25.79
2023-06-27T18:35:05.076Z,25.77
2023-06-27T18:37:31.980Z,25.76
2023-06-27T18:39:58.836Z,25.75
2023-06-27T18:42:25.667Z,25.72
2023-06-27T18:44:52.611Z,25.71
2023-06-27T18:47:19.441Z,25.68
2023-06-27T18:49:46.341Z,25.66
2023-06-27T18:52:13.266Z,25.65
2023-06-27T18:54:40.089Z,25.61
2023-06-27T18:57:07.980Z,25.58
2023-06-27T18:59:35.021Z,25.52
2023-06-27T19:02:03.339Z,25.48
2023-06-27T19:04:30.749Z,25.44
2023-06-27T19:06:57.765Z,25.38
2023-06-27T19:09:25.936Z,25.33
2023-06-27T19:11:52.831Z,25.30
2023-06-27T19:14:19.782Z,25.25
2023-06-27T19:16:46.667Z,25.21
2023-06-27T19:19:14.132Z,25.20
2023-06-27T19:21:41.632Z,25.17
2023-06-27T19:24:11.706Z,25.14
2023-06-27T19:26:38.682Z,25.12
2023-06-27T19:29:05.543Z,25.09
2023-06-27T19:31:32.456Z,25.08
2023-06-27T19:33:59.348Z,25.04
2023-06-27T19:36:26.177Z,25.02
2023-06-27T19:38:54.921Z,24.98
2023-06-27T19:41:23.046Z,24.94
2023-06-27T19:43:49.979Z,24.89
2023-06-27T19:46:16.845Z,24.82
2023-06-27T19:48:43.771Z,24.79
2023-06-27T19:51:11.747Z,24.71
2023-06-27T19:53:39.213Z,24.67
2023-06-27T19:56:07.993Z,24.59
2023-06-27T19:58:38.551Z,24.55
2023-06-27T20:01:09.175Z,24.49
2023-06-27T20:03:36.101Z,24.44
2023-06-27T20:06:03.032Z,24.41
2023-06-27T20:08:29.952Z,24.38
2023-06-27T20:10:56.855Z,24.35
2023-06-27T20:13:23.771Z,24.30
2023-06-27T20:15:50.915Z,24.24
2023-06-27T20:18:17.799Z,24.21
2023-06-27T20:20:44.841Z,24.15
2023-06-27T20:23:11.911Z,24.10
2023-06-27T20:25:38.862Z,24.07
2023-06-27T20:28:05.651Z,24.03
2023-06-27T20:30:32.562Z,23.99
2023-06-27T20:32:59.422Z,23.91
2023-06-27T20:35:26.287Z,23.85
2023-06-27T20:37:53.159Z,23.80
2023-06-27T20:40:20.048Z,23.77
2023-06-27T20:42:48.442Z,23.74
2023-06-27T20:45:16.011Z,23.71
2023-06-27T20:47:42.857Z,23.68
2023-06-27T20:50:10.657Z,23.63
2023-06-27T20:52:37.604Z,23.59
2023-06-27T20:55:04.780Z,23.56
2023-06-27T20:57:31.653Z,23.50
2023-06-27T20:59:58.573Z,23.48
2023-06-27T21:02:25.676Z,23.46
2023-06-27T21:04:54.173Z,23.44
2023-06-27T21:07:21.106Z,23.39
2023-06-27T21:09:47.995Z,23.38
2023-06-27T21:12:14.847Z,23.35
2023-06-27T21:14:41.715Z,23.34
2023-06-27T21:17:08.558Z,23.30
2023-06-27T21:19:35.453Z,23.26
2023-06-27T21:22:02.847Z,23.23
2023-06-27T21:24:29.774Z,23.20
2023-06-27T21:26:56.687Z,23.17
2023-06-27T21:29:25.291Z,23.16
2023-06-27T21:31:52.226Z,23.14
2023-06-27T21:34:19.669Z,23.10
2023-06-27T21:36:46.536Z,23.06
2023-06-27T21:39:13.384Z,23.04
2023-06-27T21:41:40.287Z,23.03
2023-06-27T21:44:07.142Z,23.01
2023-06-27T21:46:35.728Z,22.99
2023-06-27T21:49:02.644Z,22.98
2023-06-27T21:51:29.628Z,22.93
2023-06-27T21:53:56.490Z,22.92
2023-06-27T21:56:23.294Z,22.89
2023-06-27T21:58:50.180Z,22.87
2023-06-27T22:01:17.084Z,22.85
2023-06-27T22:03:44.186Z,22.84
2023-06-27T22:06:11.734Z,22.81
2023-06-27T22:08:38.685Z,22.80
2023-06-27T22:11:06.040Z,22.76
2023-06-27T22:13:33.076Z,22.73
2023-06-27T22:15:59.931Z,22.71
2023-06-27T22:18:26.874Z,22.67
2023-06-27T22:20:53.695Z,22.64
2023-06-27T22:23:20.520Z,22.61
2023-06-27T22:25:47.385Z,22.57
2023-06-27T22:28:14.294Z,22.53
2023-06-27T22:30:41.555Z,22.49
2023-06-27T22:33:08.754Z,22.48
2023-06-27T22:35:35.707Z,22.45
2023-06-27T22:38:02.524Z,22.41
2023-06-27T22:40:29.428Z,22.40
2023-06-27T22:42:56.278Z,22.37
2023-06-27T22:45:23.123Z,22.33
2023-06-27T22:47:50.039Z,22.31
2023-06-27T22:50:16.963Z,22.28
2023-06-27T22:52:43.772Z,22.26
2023-06-27T22:55:10.762Z,22.23
2023-06-27T22:57:37.620Z,22.21
2023-06-27T23:00:05.827Z,22.18
2023-06-27T23:02:32.741Z,22.16
2023-06-27T23:04:59.722Z,22.14
2023-06-27T23:07:26.679Z,22.12
2023-06-27T23:09:53.636Z,22.09
2023-06-27T23:12:20.448Z,22.06
2023-06-27T23:14:47.311Z,22.03
2023-06-27T23:17:14.140Z,22.02
2023-06-27T23:19:40.949Z,21.99
2023-06-27T23:22:13.564Z,21.96
2023-06-27T23:24:42.349Z,21.92
2023-06-27T23:27:09.267Z,21.89
2023-06-27T23:29:37.254Z,21.86
2023-06-27T23:32:05.989Z,21.84
2023-06-27T23:34:33.031Z,21.81
2023-06-27T23:36:59.908Z,21.79
2023-06-27T23:39:26.844Z,21.76
2023-06-27T23:41:53.776Z,21.73
2023-06-27T23:44:20.673Z,21.71
2023-06-27T23:46:47.609Z,21.69
2023-06-27T23:49:14.493Z,21.66
2023-06-27T23:51:41.369Z,21.63
2023-06-27T23:54:08.237Z,21.60
2023-06-27T23:56:35.111Z,21.58
2023-06-27T23:59:02.090Z,21.55
